sensor_id;sensor_type;location;lat;lon;timestamp;temperature;humidity
29849;DHT22;16728;50.832;5.590;2023-03-01T00:02:53;1.80;99.90
29849;DHT22;16728;50.832;5.590;2023-03-01T00:05:55;1.80;99.90
29849;DHT22;16728;50.832;5.590;2023-03-01T00:08:57;1.70;99.90
29849;DHT22;16728;50.832;5.590;2023-03-01T00:11:59;1.70;99.90
29849;DHT22;16728;50.832;5.590;2023-03-01T00:15:01;1.60;99.90
29849;DHT22;16728;50.832;5.590;2023-03-01T00:18:03;1.60;99.90
29849;DHT22;16728;50.832;5.590;2023-03-01T00:21:06;1.70;99.90
29849;DHT22;16728;50.832;5.590;2023-03-01T00:24:09;1.50;99.90
29849;DHT22;16728;50.832;5.590;2023-03-01T00:27:11;1.60;99.90
29849;DHT22;16728;50.832;5.590;2023-03-01T00:30:13;1.70;99.90
29849;DHT22;16728;50.832;5.590;2023-03-01T00:33:15;1.80;99.90
29849;DHT22;16728;50.832;5.590;2023-03-01T00:36:17;1.60;99.90
29849;DHT22;16728;50.832;5.590;2023-03-01T00:39:19;1.60;99.90
29849;DHT22;16728;50.832;5.590;2023-03-01T00:42:21;1.60;99.90
29849;DHT22;16728;50.832;5.590;2023-03-01T00:45:24;1.70;99.90
29849;DHT22;16728;50.832;5.590;2023-03-01T00:48:26;1.40;99.90
29849;DHT22;16728;50.832;5.590;2023-03-01T00:51:28;1.60;99.90
29849;DHT22;16728;50.832;5.590;2023-03-01T00:54:31;1.50;99.90
29849;DHT22;16728;50.832;5.590;2023-03-01T00:57:33;1.60;99.90
29849;DHT22;16728;50.832;5.590;2023-03-01T01:00:35;1.60;99.90
29849;DHT22;16728;50.832;5.590;2023-03-01T01:03:37;1.60;99.90
29849;DHT22;16728;50.832;5.590;2023-03-01T01:06:42;1.50;99.90
29849;DHT22;16728;50.832;5.590;2023-03-01T01:09:44;1.30;99.90
29849;DHT22;16728;50.832;5.590;2023-03-01T01:12:46;1.50;99.90
29849;DHT22;16728;50.832;5.590;2023-03-01T01:15:48;1.40;99.90
29849;DHT22;16728;50.832;5.590;2023-03-01T01:18:51;1.60;99.90
29849;DHT22;16728;50.832;5.590;2023-03-01T01:21:53;1.50;99.90
29849;DHT22;16728;50.832;5.590;2023-03-01T01:24:55;1.50;99.90
29849;DHT22;16728;50.832;5.590;2023-03-01T01:27:57;1.50;99.90
29849;DHT22;16728;50.832;5.590;2023-03-01T01:30:59;1.60;99.90
29849;DHT22;16728;50.832;5.590;2023-03-01T01:34:04;1.40;99.90
29849;DHT22;16728;50.832;5.590;2023-03-01T01:37:06;1.40;99.90
29849;DHT22;16728;50.832;5.590;2023-03-01T01:40:10;1.40;99.90
29849;DHT22;16728;50.832;5.590;2023-03-01T01:43:22;1.40;99.90
29849;DHT22;16728;50.832;5.590;2023-03-01T01:49:51;1.20;99.90
29849;DHT22;16728;50.832;5.590;2023-03-01T01:52:55;1.30;99.90
29849;DHT22;16728;50.832;5.590;2023-03-01T01:55:58;1.20;99.90
29849;DHT22;16728;50.832;5.590;2023-03-01T01:59:02;1.00;99.90
29849;DHT22;16728;50.832;5.590;2023-03-01T02:02:04;1.00;99.90
29849;DHT22;16728;50.832;5.590;2023-03-01T02:09:00;1.10;99.90
29849;DHT22;16728;50.832;5.590;2023-03-01T02:12:04;1.10;99.90
29849;DHT22;16728;50.832;5.590;2023-03-01T02:15:06;1.20;99.90
29849;DHT22;16728;50.832;5.590;2023-03-01T02:18:10;1.20;99.90
29849;DHT22;16728;50.832;5.590;2023-03-01T02:24:47;1.20;99.90
29849;DHT22;16728;50.832;5.590;2023-03-01T02:31:20;0.90;99.90
29849;DHT22;16728;50.832;5.590;2023-03-01T02:34:41;0.80;99.90
29849;DHT22;16728;50.832;5.590;2023-03-01T02:37:45;0.90;99.90
29849;DHT22;16728;50.832;5.590;2023-03-01T02:40:48;0.90;99.90
29849;DHT22;16728;50.832;5.590;2023-03-01T02:43:51;0.90;99.90
29849;DHT22;16728;50.832;5.590;2023-03-01T02:46:56;1.00;99.90
29849;DHT22;16728;50.832;5.590;2023-03-01T02:49:59;0.90;99.90
29849;DHT22;16728;50.832;5.590;2023-03-01T02:53:19;1.00;99.90
29849;DHT22;16728;50.832;5.590;2023-03-01T02:56:25;1.00;99.90
29849;DHT22;16728;50.832;5.590;2023-03-01T02:59:32;1.00;99.90
29849;DHT22;16728;50.832;5.590;2023-03-01T03:02:40;1.00;99.90
29849;DHT22;16728;50.832;5.590;2023-03-01T03:05:43;0.70;99.90
29849;DHT22;16728;50.832;5.590;2023-03-01T03:08:45;0.80;99.90
29849;DHT22;16728;50.832;5.590;2023-03-01T03:11:47;0.70;99.90
29849;DHT22;16728;50.832;5.590;2023-03-01T03:14:49;0.70;99.90
29849;DHT22;16728;50.832;5.590;2023-03-01T03:17:52;0.80;99.90
29849;DHT22;16728;50.832;5.590;2023-03-01T03:20:54;0.70;99.90
29849;DHT22;16728;50.832;5.590;2023-03-01T03:23:56;0.70;99.90
29849;DHT22;16728;50.832;5.590;2023-03-01T03:26:59;0.70;99.90
29849;DHT22;16728;50.832;5.590;2023-03-01T03:30:01;0.60;99.90
29849;DHT22;16728;50.832;5.590;2023-03-01T03:33:04;0.70;99.90
29849;DHT22;16728;50.832;5.590;2023-03-01T03:36:06;0.60;99.90
29849;DHT22;16728;50.832;5.590;2023-03-01T03:39:08;0.60;99.90
29849;DHT22;16728;50.832;5.590;2023-03-01T03:42:10;0.70;99.90
29849;DHT22;16728;50.832;5.590;2023-03-01T03:45:12;0.70;99.90
29849;DHT22;16728;50.832;5.590;2023-03-01T03:48:15;0.50;99.90
29849;DHT22;16728;50.832;5.590;2023-03-01T03:51:18;0.50;99.90
29849;DHT22;16728;50.832;5.590;2023-03-01T03:54:20;0.50;99.90
29849;DHT22;16728;50.832;5.590;2023-03-01T03:57:22;0.50;99.90
29849;DHT22;16728;50.832;5.590;2023-03-01T04:00:24;0.50;99.90
29849;DHT22;16728;50.832;5.590;2023-03-01T04:03:27;0.50;99.90
29849;DHT22;16728;50.832;5.590;2023-03-01T04:06:29;0.50;99.90
29849;DHT22;16728;50.832;5.590;2023-03-01T04:09:31;0.50;99.90
29849;DHT22;16728;50.832;5.590;2023-03-01T04:12:34;0.60;99.90
29849;DHT22;16728;50.832;5.590;2023-03-01T04:15:36;0.50;99.90
29849;DHT22;16728;50.832;5.590;2023-03-01T04:18:38;0.70;99.90
29849;DHT22;16728;50.832;5.590;2023-03-01T04:21:40;0.50;99.90
29849;DHT22;16728;50.832;5.590;2023-03-01T04:24:42;0.50;99.90
29849;DHT22;16728;50.832;5.590;2023-03-01T04:27:43;0.50;99.90
29849;DHT22;16728;50.832;5.590;2023-03-01T04:30:45;0.60;99.90
29849;DHT22;16728;50.832;5.590;2023-03-01T04:33:50;0.60;99.90
29849;DHT22;16728;50.832;5.590;2023-03-01T04:36:55;0.60;99.90
29849;DHT22;16728;50.832;5.590;2023-03-01T04:39:57;0.60;99.90
29849;DHT22;16728;50.832;5.590;2023-03-01T04:42:59;0.50;99.90
29849;DHT22;16728;50.832;5.590;2023-03-01T04:46:09;0.40;99.90
29849;DHT22;16728;50.832;5.590;2023-03-01T04:49:16;0.30;99.90
29849;DHT22;16728;50.832;5.590;2023-03-01T04:52:18;0.30;99.90
29849;DHT22;16728;50.832;5.590;2023-03-01T04:55:20;0.20;99.90
29849;DHT22;16728;50.832;5.590;2023-03-01T04:58:26;0.10;99.90
29849;DHT22;16728;50.832;5.590;2023-03-01T05:01:28;0.00;99.90
29849;DHT22;16728;50.832;5.590;2023-03-01T05:04:31;0.10;99.90
29849;DHT22;16728;50.832;5.590;2023-03-01T05:07:33;0.10;99.90
29849;DHT22;16728;50.832;5.590;2023-03-01T05:10:36;0.20;99.90
29849;DHT22;16728;50.832;5.590;2023-03-01T05:13:38;0.20;99.90
29849;DHT22;16728;50.832;5.590;2023-03-01T05:16:40;0.10;99.90
29849;DHT22;16728;50.832;5.590;2023-03-01T05:19:42;0.20;99.90
29849;DHT22;16728;50.832;5.590;2023-03-01T05:22:44;0.10;99.90
29849;DHT22;16728;50.832;5.590;2023-03-01T05:25:46;-0.10;99.90
29849;DHT22;16728;50.832;5.590;2023-03-01T05:28:48;-0.10;99.90
29849;DHT22;16728;50.832;5.590;2023-03-01T05:31:58;0.00;99.90
29849;DHT22;16728;50.832;5.590;2023-03-01T05:35:00;-0.10;99.90
29849;DHT22;16728;50.832;5.590;2023-03-01T05:38:02;-0.10;99.90
29849;DHT22;16728;50.832;5.590;2023-03-01T05:41:04;-0.20;99.90
29849;DHT22;16728;50.832;5.590;2023-03-01T05:44:07;-0.10;99.90
29849;DHT22;16728;50.832;5.590;2023-03-01T05:47:08;-0.10;99.90
29849;DHT22;16728;50.832;5.590;2023-03-01T05:50:15;-0.10;99.90
29849;DHT22;16728;50.832;5.590;2023-03-01T05:53:20;0.00;99.90
29849;DHT22;16728;50.832;5.590;2023-03-01T05:56:22;-0.10;99.90
29849;DHT22;16728;50.832;5.590;2023-03-01T05:59:25;0.00;99.90
29849;DHT22;16728;50.832;5.590;2023-03-01T06:05:31;-0.20;99.90
29849;DHT22;16728;50.832;5.590;2023-03-01T06:08:33;0.00;99.90
29849;DHT22;16728;50.832;5.590;2023-03-01T06:11:36;-0.20;99.90
29849;DHT22;16728;50.832;5.590;2023-03-01T06:14:38;-0.20;99.90
29849;DHT22;16728;50.832;5.590;2023-03-01T06:17:42;-0.40;99.90
29849;DHT22;16728;50.832;5.590;2023-03-01T06:20:44;-0.40;99.90
29849;DHT22;16728;50.832;5.590;2023-03-01T06:23:46;-0.30;99.90
29849;DHT22;16728;50.832;5.590;2023-03-01T06:26:48;-0.20;99.90
29849;DHT22;16728;50.832;5.590;2023-03-01T06:29:50;-0.30;99.90
29849;DHT22;16728;50.832;5.590;2023-03-01T06:32:52;-0.20;99.90
29849;DHT22;16728;50.832;5.590;2023-03-01T06:35:55;-0.20;99.90
29849;DHT22;16728;50.832;5.590;2023-03-01T06:38:58;-0.30;99.90
29849;DHT22;16728;50.832;5.590;2023-03-01T06:41:59;-0.30;99.90
29849;DHT22;16728;50.832;5.590;2023-03-01T06:45:02;-0.30;99.90
29849;DHT22;16728;50.832;5.590;2023-03-01T06:48:05;-0.40;99.90
29849;DHT22;16728;50.832;5.590;2023-03-01T06:51:07;-0.30;99.90
29849;DHT22;16728;50.832;5.590;2023-03-01T06:54:09;-0.40;99.90
29849;DHT22;16728;50.832;5.590;2023-03-01T06:57:11;-0.30;99.90
29849;DHT22;16728;50.832;5.590;2023-03-01T07:00:14;-0.30;99.90
29849;DHT22;16728;50.832;5.590;2023-03-01T07:03:16;-0.10;99.90
29849;DHT22;16728;50.832;5.590;2023-03-01T07:06:19;-0.20;99.90
29849;DHT22;16728;50.832;5.590;2023-03-01T07:09:22;-0.20;99.90
29849;DHT22;16728;50.832;5.590;2023-03-01T07:12:25;-0.10;99.90
29849;DHT22;16728;50.832;5.590;2023-03-01T07:15:27;-0.20;99.90
29849;DHT22;16728;50.832;5.590;2023-03-01T07:18:29;-0.20;99.90
29849;DHT22;16728;50.832;5.590;2023-03-01T07:21:31;-0.10;99.90
29849;DHT22;16728;50.832;5.590;2023-03-01T07:24:33;-0.20;99.90
29849;DHT22;16728;50.832;5.590;2023-03-01T07:27:35;-0.10;99.90
29849;DHT22;16728;50.832;5.590;2023-03-01T07:30:37;-0.10;99.90
29849;DHT22;16728;50.832;5.590;2023-03-01T07:33:39;-0.10;99.90
29849;DHT22;16728;50.832;5.590;2023-03-01T07:36:41;0.00;99.90
29849;DHT22;16728;50.832;5.590;2023-03-01T07:39:44;0.00;99.90
29849;DHT22;16728;50.832;5.590;2023-03-01T07:42:46;0.20;99.90
29849;DHT22;16728;50.832;5.590;2023-03-01T07:45:48;0.10;99.90
29849;DHT22;16728;50.832;5.590;2023-03-01T07:48:50;0.20;99.90
29849;DHT22;16728;50.832;5.590;2023-03-01T07:51:52;0.30;99.90
29849;DHT22;16728;50.832;5.590;2023-03-01T07:54:54;0.50;99.90
29849;DHT22;16728;50.832;5.590;2023-03-01T07:57:56;0.50;99.90
29849;DHT22;16728;50.832;5.590;2023-03-01T08:01:02;0.60;99.90
29849;DHT22;16728;50.832;5.590;2023-03-01T08:04:04;0.70;99.90
29849;DHT22;16728;50.832;5.590;2023-03-01T08:07:09;0.80;99.90
29849;DHT22;16728;50.832;5.590;2023-03-01T08:10:11;0.80;99.90
29849;DHT22;16728;50.832;5.590;2023-03-01T08:13:13;0.90;99.90
29849;DHT22;16728;50.832;5.590;2023-03-01T08:16:15;0.90;99.90
29849;DHT22;16728;50.832;5.590;2023-03-01T08:19:17;1.00;99.90
29849;DHT22;16728;50.832;5.590;2023-03-01T08:22:19;1.10;99.90
29849;DHT22;16728;50.832;5.590;2023-03-01T08:25:21;1.10;99.90
29849;DHT22;16728;50.832;5.590;2023-03-01T08:28:23;1.20;99.90
29849;DHT22;16728;50.832;5.590;2023-03-01T08:31:27;1.20;99.90
29849;DHT22;16728;50.832;5.590;2023-03-01T08:34:30;1.30;99.90
29849;DHT22;16728;50.832;5.590;2023-03-01T08:37:33;1.40;99.90
29849;DHT22;16728;50.832;5.590;2023-03-01T08:40:34;1.40;99.90
29849;DHT22;16728;50.832;5.590;2023-03-01T08:43:36;1.50;99.90
29849;DHT22;16728;50.832;5.590;2023-03-01T08:46:40;1.60;99.90
29849;DHT22;16728;50.832;5.590;2023-03-01T08:49:42;1.70;99.90
29849;DHT22;16728;50.832;5.590;2023-03-01T08:52:44;1.70;99.90
29849;DHT22;16728;50.832;5.590;2023-03-01T08:55:46;1.70;99.90
29849;DHT22;16728;50.832;5.590;2023-03-01T08:58:51;1.80;99.90
29849;DHT22;16728;50.832;5.590;2023-03-01T09:01:53;1.90;99.90
29849;DHT22;16728;50.832;5.590;2023-03-01T09:04:55;1.90;99.90
29849;DHT22;16728;50.832;5.590;2023-03-01T09:07:57;2.00;99.90
29849;DHT22;16728;50.832;5.590;2023-03-01T09:11:04;2.10;99.90
29849;DHT22;16728;50.832;5.590;2023-03-01T09:14:07;2.10;99.90
29849;DHT22;16728;50.832;5.590;2023-03-01T09:17:08;2.20;99.90
29849;DHT22;16728;50.832;5.590;2023-03-01T09:20:11;2.40;99.90
29849;DHT22;16728;50.832;5.590;2023-03-01T09:23:12;2.40;99.90
29849;DHT22;16728;50.832;5.590;2023-03-01T09:26:19;2.50;99.90
29849;DHT22;16728;50.832;5.590;2023-03-01T09:29:22;2.60;99.90
29849;DHT22;16728;50.832;5.590;2023-03-01T09:32:24;2.70;99.90
29849;DHT22;16728;50.832;5.590;2023-03-01T09:35:26;2.70;99.90
29849;DHT22;16728;50.832;5.590;2023-03-01T09:38:29;2.80;99.90
29849;DHT22;16728;50.832;5.590;2023-03-01T09:44:59;3.00;99.90
29849;DHT22;16728;50.832;5.590;2023-03-01T09:48:05;3.00;99.90
29849;DHT22;16728;50.832;5.590;2023-03-01T09:51:12;3.10;99.90
29849;DHT22;16728;50.832;5.590;2023-03-01T09:54:16;3.10;99.90
29849;DHT22;16728;50.832;5.590;2023-03-01T10:00:43;3.10;99.90
29849;DHT22;16728;50.832;5.590;2023-03-01T10:10:37;3.60;99.90
29849;DHT22;16728;50.832;5.590;2023-03-01T10:17:06;3.70;99.90
29849;DHT22;16728;50.832;5.590;2023-03-01T10:20:37;3.80;99.90
29849;DHT22;16728;50.832;5.590;2023-03-01T10:23:44;3.90;99.90
29849;DHT22;16728;50.832;5.590;2023-03-01T10:26:57;3.90;99.90
29849;DHT22;16728;50.832;5.590;2023-03-01T10:30:21;4.00;99.90
29849;DHT22;16728;50.832;5.590;2023-03-01T10:33:27;4.10;99.90
29849;DHT22;16728;50.832;5.590;2023-03-01T10:36:39;4.10;99.90
29849;DHT22;16728;50.832;5.590;2023-03-01T10:40:06;4.10;99.90
29849;DHT22;16728;50.832;5.590;2023-03-01T10:43:11;4.10;99.90
29849;DHT22;16728;50.832;5.590;2023-03-01T10:46:21;4.20;99.90
29849;DHT22;16728;50.832;5.590;2023-03-01T10:49:23;4.20;99.90
29849;DHT22;16728;50.832;5.590;2023-03-01T10:52:32;4.30;99.90
29849;DHT22;16728;50.832;5.590;2023-03-01T10:55:36;4.40;99.90
29849;DHT22;16728;50.832;5.590;2023-03-01T10:58:41;4.40;99.90
29849;DHT22;16728;50.832;5.590;2023-03-01T11:02:23;4.50;99.90
29849;DHT22;16728;50.832;5.590;2023-03-01T11:05:27;4.70;99.90
29849;DHT22;16728;50.832;5.590;2023-03-01T11:08:41;4.70;99.90
29849;DHT22;16728;50.832;5.590;2023-03-01T11:11:43;4.70;99.90
29849;DHT22;16728;50.832;5.590;2023-03-01T11:14:48;4.80;99.90
29849;DHT22;16728;50.832;5.590;2023-03-01T11:17:51;4.90;99.90
29849;DHT22;16728;50.832;5.590;2023-03-01T11:21:01;5.10;99.90
29849;DHT22;16728;50.832;5.590;2023-03-01T11:24:06;5.10;99.90
29849;DHT22;16728;50.832;5.590;2023-03-01T11:27:25;5.20;99.90
29849;DHT22;16728;50.832;5.590;2023-03-01T11:30:38;5.30;99.90
29849;DHT22;16728;50.832;5.590;2023-03-01T11:34:13;5.50;99.90
29849;DHT22;16728;50.832;5.590;2023-03-01T11:44:05;5.50;99.90
29849;DHT22;16728;50.832;5.590;2023-03-01T12:07:45;5.70;99.90
29849;DHT22;16728;50.832;5.590;2023-03-01T12:11:15;5.60;99.90
29849;DHT22;16728;50.832;5.590;2023-03-01T12:18:09;5.50;99.90
29849;DHT22;16728;50.832;5.590;2023-03-01T12:40:51;5.60;99.90
29849;DHT22;16728;50.832;5.590;2023-03-01T12:51:01;5.60;99.90
29849;DHT22;16728;50.832;5.590;2023-03-01T12:54:27;5.60;99.90
29849;DHT22;16728;50.832;5.590;2023-03-01T12:57:48;5.60;99.90
29849;DHT22;16728;50.832;5.590;2023-03-01T13:01:09;5.60;99.90
29849;DHT22;16728;50.832;5.590;2023-03-01T13:07:55;5.60;99.90
29849;DHT22;16728;50.832;5.590;2023-03-01T13:11:02;5.80;99.90
29849;DHT22;16728;50.832;5.590;2023-03-01T13:17:33;5.80;99.90
29849;DHT22;16728;50.832;5.590;2023-03-01T13:23:48;5.90;99.90
29849;DHT22;16728;50.832;5.590;2023-03-01T13:27:18;6.00;99.90
29849;DHT22;16728;50.832;5.590;2023-03-01T13:30:39;6.00;99.90
29849;DHT22;16728;50.832;5.590;2023-03-01T13:33:46;6.20;99.90
29849;DHT22;16728;50.832;5.590;2023-03-01T13:36:49;6.20;99.90
29849;DHT22;16728;50.832;5.590;2023-03-01T13:39:52;6.10;99.90
29849;DHT22;16728;50.832;5.590;2023-03-01T13:42:55;6.00;99.90
29849;DHT22;16728;50.832;5.590;2023-03-01T13:46:16;6.00;99.90
29849;DHT22;16728;50.832;5.590;2023-03-01T13:49:25;6.00;99.90
29849;DHT22;16728;50.832;5.590;2023-03-01T13:55:47;6.00;99.90
29849;DHT22;16728;50.832;5.590;2023-03-01T13:58:51;6.00;99.90
29849;DHT22;16728;50.832;5.590;2023-03-01T14:01:55;6.10;99.90
29849;DHT22;16728;50.832;5.590;2023-03-01T14:05:00;6.30;99.90
29849;DHT22;16728;50.832;5.590;2023-03-01T14:08:04;6.30;99.90
29849;DHT22;16728;50.832;5.590;2023-03-01T14:14:48;6.40;99.50
29849;DHT22;16728;50.832;5.590;2023-03-01T14:20:57;6.40;99.80
29849;DHT22;16728;50.832;5.590;2023-03-01T14:24:00;6.40;99.90
29849;DHT22;16728;50.832;5.590;2023-03-01T14:27:02;6.40;99.00
29849;DHT22;16728;50.832;5.590;2023-03-01T14:30:16;6.30;99.50
29849;DHT22;16728;50.832;5.590;2023-03-01T14:33:31;6.40;99.60
29849;DHT22;16728;50.832;5.590;2023-03-01T14:36:35;6.40;99.70
29849;DHT22;16728;50.832;5.590;2023-03-01T14:39:37;6.40;99.40
29849;DHT22;16728;50.832;5.590;2023-03-01T14:42:39;6.40;99.90
29849;DHT22;16728;50.832;5.590;2023-03-01T14:45:47;6.50;99.20
29849;DHT22;16728;50.832;5.590;2023-03-01T14:48:56;6.50;99.60
29849;DHT22;16728;50.832;5.590;2023-03-01T14:52:02;6.60;99.20
29849;DHT22;16728;50.832;5.590;2023-03-01T14:55:12;6.60;98.50
29849;DHT22;16728;50.832;5.590;2023-03-01T14:58:20;6.50;98.40
29849;DHT22;16728;50.832;5.590;2023-03-01T15:01:22;6.60;98.70
29849;DHT22;16728;50.832;5.590;2023-03-01T15:04:26;6.50;98.90
29849;DHT22;16728;50.832;5.590;2023-03-01T15:07:33;6.60;98.00
29849;DHT22;16728;50.832;5.590;2023-03-01T15:10:36;6.60;98.00
29849;DHT22;16728;50.832;5.590;2023-03-01T15:13:38;6.60;97.30
29849;DHT22;16728;50.832;5.590;2023-03-01T15:16:40;6.60;97.80
29849;DHT22;16728;50.832;5.590;2023-03-01T15:19:46;6.60;98.00
29849;DHT22;16728;50.832;5.590;2023-03-01T15:22:49;6.50;98.10
29849;DHT22;16728;50.832;5.590;2023-03-01T15:25:52;6.60;98.10
29849;DHT22;16728;50.832;5.590;2023-03-01T15:29:01;6.60;98.30
29849;DHT22;16728;50.832;5.590;2023-03-01T15:32:06;6.60;98.60
29849;DHT22;16728;50.832;5.590;2023-03-01T15:45:32;6.60;97.90
29849;DHT22;16728;50.832;5.590;2023-03-01T15:48:35;6.60;97.40
29849;DHT22;16728;50.832;5.590;2023-03-01T15:51:37;6.60;97.30
29849;DHT22;16728;50.832;5.590;2023-03-01T15:54:39;6.60;97.70
29849;DHT22;16728;50.832;5.590;2023-03-01T15:57:42;6.60;98.10
29849;DHT22;16728;50.832;5.590;2023-03-01T16:00:45;6.60;97.30
29849;DHT22;16728;50.832;5.590;2023-03-01T16:04:01;6.50;97.20
29849;DHT22;16728;50.832;5.590;2023-03-01T16:07:04;6.50;96.60
29849;DHT22;16728;50.832;5.590;2023-03-01T16:10:06;6.60;97.00
29849;DHT22;16728;50.832;5.590;2023-03-01T16:13:08;6.60;96.60
29849;DHT22;16728;50.832;5.590;2023-03-01T16:16:11;6.50;96.30
29849;DHT22;16728;50.832;5.590;2023-03-01T16:19:16;6.50;96.20
29849;DHT22;16728;50.832;5.590;2023-03-01T16:22:18;6.50;96.30
29849;DHT22;16728;50.832;5.590;2023-03-01T16:25:26;6.50;96.40
29849;DHT22;16728;50.832;5.590;2023-03-01T16:28:28;6.50;96.60
29849;DHT22;16728;50.832;5.590;2023-03-01T16:31:31;6.50;97.20
29849;DHT22;16728;50.832;5.590;2023-03-01T16:34:33;6.40;97.10
29849;DHT22;16728;50.832;5.590;2023-03-01T16:37:35;6.50;97.20
29849;DHT22;16728;50.832;5.590;2023-03-01T16:40:37;6.40;97.40
29849;DHT22;16728;50.832;5.590;2023-03-01T16:43:40;6.40;97.80
29849;DHT22;16728;50.832;5.590;2023-03-01T16:46:42;6.40;98.30
29849;DHT22;16728;50.832;5.590;2023-03-01T16:49:45;6.40;98.70
29849;DHT22;16728;50.832;5.590;2023-03-01T16:52:46;6.40;98.90
29849;DHT22;16728;50.832;5.590;2023-03-01T16:55:58;6.30;99.10
29849;DHT22;16728;50.832;5.590;2023-03-01T16:59:00;6.30;99.20
29849;DHT22;16728;50.832;5.590;2023-03-01T17:02:10;6.30;99.30
29849;DHT22;16728;50.832;5.590;2023-03-01T17:05:14;6.30;99.50
29849;DHT22;16728;50.832;5.590;2023-03-01T17:08:17;6.20;99.70
29849;DHT22;16728;50.832;5.590;2023-03-01T17:11:20;6.10;99.60
29849;DHT22;16728;50.832;5.590;2023-03-01T17:14:22;6.10;99.90
29849;DHT22;16728;50.832;5.590;2023-03-01T17:17:24;6.00;99.90
29849;DHT22;16728;50.832;5.590;2023-03-01T17:20:25;6.00;99.90
29849;DHT22;16728;50.832;5.590;2023-03-01T17:23:29;6.00;99.90
29849;DHT22;16728;50.832;5.590;2023-03-01T17:26:32;6.00;99.90
29849;DHT22;16728;50.832;5.590;2023-03-01T17:29:34;5.90;99.90
29849;DHT22;16728;50.832;5.590;2023-03-01T17:32:36;5.90;99.90
29849;DHT22;16728;50.832;5.590;2023-03-01T17:35:38;5.80;99.90
29849;DHT22;16728;50.832;5.590;2023-03-01T17:38:40;5.90;99.90
29849;DHT22;16728;50.832;5.590;2023-03-01T17:41:42;5.90;99.60
29849;DHT22;16728;50.832;5.590;2023-03-01T17:44:44;5.90;99.50
29849;DHT22;16728;50.832;5.590;2023-03-01T17:47:46;5.80;99.70
29849;DHT22;16728;50.832;5.590;2023-03-01T17:50:48;5.80;99.70
29849;DHT22;16728;50.832;5.590;2023-03-01T17:53:50;5.80;99.60
29849;DHT22;16728;50.832;5.590;2023-03-01T17:56:52;5.70;99.70
29849;DHT22;16728;50.832;5.590;2023-03-01T17:59:55;5.70;99.60
29849;DHT22;16728;50.832;5.590;2023-03-01T18:02:57;5.70;99.80
29849;DHT22;16728;50.832;5.590;2023-03-01T18:06:00;5.60;99.90
29849;DHT22;16728;50.832;5.590;2023-03-01T18:09:03;5.60;99.90
29849;DHT22;16728;50.832;5.590;2023-03-01T18:12:04;5.50;99.90
29849;DHT22;16728;50.832;5.590;2023-03-01T18:15:07;5.50;99.90
29849;DHT22;16728;50.832;5.590;2023-03-01T18:18:09;5.40;99.90
29849;DHT22;16728;50.832;5.590;2023-03-01T18:21:12;5.30;99.90
29849;DHT22;16728;50.832;5.590;2023-03-01T18:24:14;5.30;99.90
29849;DHT22;16728;50.832;5.590;2023-03-01T18:27:16;5.30;99.90
29849;DHT22;16728;50.832;5.590;2023-03-01T18:30:18;5.20;99.90
29849;DHT22;16728;50.832;5.590;2023-03-01T18:33:20;5.10;99.90
29849;DHT22;16728;50.832;5.590;2023-03-01T18:36:24;5.10;99.90
29849;DHT22;16728;50.832;5.590;2023-03-01T18:39:27;5.00;99.90
29849;DHT22;16728;50.832;5.590;2023-03-01T18:42:29;5.00;99.90
29849;DHT22;16728;50.832;5.590;2023-03-01T18:45:31;5.10;99.90
29849;DHT22;16728;50.832;5.590;2023-03-01T18:48:33;5.10;99.90
29849;DHT22;16728;50.832;5.590;2023-03-01T18:51:36;5.10;99.90
29849;DHT22;16728;50.832;5.590;2023-03-01T18:54:38;5.20;99.90
29849;DHT22;16728;50.832;5.590;2023-03-01T18:57:40;5.10;99.90
29849;DHT22;16728;50.832;5.590;2023-03-01T19:00:42;5.10;99.90
29849;DHT22;16728;50.832;5.590;2023-03-01T19:03:44;5.10;99.90
29849;DHT22;16728;50.832;5.590;2023-03-01T19:06:47;5.20;99.90
29849;DHT22;16728;50.832;5.590;2023-03-01T19:09:49;5.10;99.90
29849;DHT22;16728;50.832;5.590;2023-03-01T19:12:51;5.10;99.90
29849;DHT22;16728;50.832;5.590;2023-03-01T19:16:03;5.00;99.90
29849;DHT22;16728;50.832;5.590;2023-03-01T19:19:05;5.10;99.90
29849;DHT22;16728;50.832;5.590;2023-03-01T19:22:10;5.00;99.90
29849;DHT22;16728;50.832;5.590;2023-03-01T19:25:12;4.90;99.90
29849;DHT22;16728;50.832;5.590;2023-03-01T19:28:14;5.00;99.90
29849;DHT22;16728;50.832;5.590;2023-03-01T19:31:18;4.90;99.90
29849;DHT22;16728;50.832;5.590;2023-03-01T19:34:21;4.90;99.90
29849;DHT22;16728;50.832;5.590;2023-03-01T19:37:25;4.90;99.90
29849;DHT22;16728;50.832;5.590;2023-03-01T19:40:27;4.80;99.90
29849;DHT22;16728;50.832;5.590;2023-03-01T19:43:28;4.80;99.90
29849;DHT22;16728;50.832;5.590;2023-03-01T19:46:31;4.70;99.90
29849;DHT22;16728;50.832;5.590;2023-03-01T19:49:34;4.70;99.90
29849;DHT22;16728;50.832;5.590;2023-03-01T19:52:38;4.70;99.90
29849;DHT22;16728;50.832;5.590;2023-03-01T19:55:40;4.70;99.90
29849;DHT22;16728;50.832;5.590;2023-03-01T19:58:42;4.70;99.90
29849;DHT22;16728;50.832;5.590;2023-03-01T20:01:45;4.70;99.90
29849;DHT22;16728;50.832;5.590;2023-03-01T20:04:47;4.60;99.90
29849;DHT22;16728;50.832;5.590;2023-03-01T20:07:49;4.60;99.90
29849;DHT22;16728;50.832;5.590;2023-03-01T20:11:01;4.50;99.90
29849;DHT22;16728;50.832;5.590;2023-03-01T20:14:03;4.50;99.90
29849;DHT22;16728;50.832;5.590;2023-03-01T20:17:07;4.40;99.90
29849;DHT22;16728;50.832;5.590;2023-03-01T20:20:09;4.50;99.90
29849;DHT22;16728;50.832;5.590;2023-03-01T20:23:11;4.50;99.90
29849;DHT22;16728;50.832;5.590;2023-03-01T20:26:15;4.50;99.90
29849;DHT22;16728;50.832;5.590;2023-03-01T20:29:20;4.50;99.90
29849;DHT22;16728;50.832;5.590;2023-03-01T20:32:22;4.50;99.90
29849;DHT22;16728;50.832;5.590;2023-03-01T20:35:24;4.40;99.90
29849;DHT22;16728;50.832;5.590;2023-03-01T20:38:26;4.40;99.90
29849;DHT22;16728;50.832;5.590;2023-03-01T20:41:28;4.40;99.90
29849;DHT22;16728;50.832;5.590;2023-03-01T20:44:30;4.40;99.90
29849;DHT22;16728;50.832;5.590;2023-03-01T20:47:32;4.40;99.90
29849;DHT22;16728;50.832;5.590;2023-03-01T20:50:34;4.40;99.90
29849;DHT22;16728;50.832;5.590;2023-03-01T20:53:36;4.30;99.90
29849;DHT22;16728;50.832;5.590;2023-03-01T20:56:37;4.30;99.90
29849;DHT22;16728;50.832;5.590;2023-03-01T20:59:39;4.30;99.90
29849;DHT22;16728;50.832;5.590;2023-03-01T21:02:41;4.30;99.90
29849;DHT22;16728;50.832;5.590;2023-03-01T21:05:45;4.20;99.90
29849;DHT22;16728;50.832;5.590;2023-03-01T21:08:47;4.20;99.90
29849;DHT22;16728;50.832;5.590;2023-03-01T21:11:49;4.20;99.90
29849;DHT22;16728;50.832;5.590;2023-03-01T21:14:51;4.10;99.90
29849;DHT22;16728;50.832;5.590;2023-03-01T21:17:53;4.10;99.90
29849;DHT22;16728;50.832;5.590;2023-03-01T21:20:59;4.20;99.90
29849;DHT22;16728;50.832;5.590;2023-03-01T21:24:01;4.00;99.90
29849;DHT22;16728;50.832;5.590;2023-03-01T21:27:03;3.90;99.90
29849;DHT22;16728;50.832;5.590;2023-03-01T21:30:07;4.00;99.90
29849;DHT22;16728;50.832;5.590;2023-03-01T21:33:09;3.90;99.90
29849;DHT22;16728;50.832;5.590;2023-03-01T21:36:11;3.90;99.90
29849;DHT22;16728;50.832;5.590;2023-03-01T21:39:13;3.80;99.90
29849;DHT22;16728;50.832;5.590;2023-03-01T21:42:15;3.80;99.90
29849;DHT22;16728;50.832;5.590;2023-03-01T21:45:17;3.70;99.90